createdAt,value
2019-03-01T00:00:13.033Z,21.80
2019-03-01T00:02:42.583Z,21.30
2019-03-01T00:05:53.470Z,20.63
2019-03-01T00:08:45.471Z,22.93
2019-03-01T00:11:26.690Z,22.03
2019-03-01T00:14:22.923Z,20.30
2019-03-01T00:17:52.023Z,17.47
2019-03-01T00:21:05.943Z,20.57
2019-03-01T00:24:03.327Z,23.80
2019-03-01T00:27:19.285Z,19.20
2019-03-01T00:30:38.483Z,17.00
2019-03-01T00:33:33.919Z,18.63
2019-03-01T00:36:29.174Z,20.93
2019-03-01T00:39:23.123Z,16.27
2019-03-01T00:42:36.628Z,20.40
2019-03-01T00:45:06.806Z,18.70
2019-03-01T00:47:36.404Z,20.30
2019-03-01T00:50:06.950Z,20.40
2019-03-01T00:52:36.608Z,21.57
2019-03-01T00:55:06.504Z,21.80
2019-03-01T00:57:36.117Z,14.63
2019-03-01T01:00:07.910Z,12.40
2019-03-01T01:02:37.439Z,16.50
2019-03-01T01:05:11.276Z,12.97
2019-03-01T01:07:40.847Z,11.33
2019-03-01T01:10:10.563Z,12.47
2019-03-01T01:12:40.210Z,14.43
2019-03-01T01:15:09.995Z,8.33
2019-03-01T01:17:39.816Z,15.40
2019-03-01T01:20:10.005Z,12.63
2019-03-01T01:22:39.558Z,11.77
2019-03-01T01:25:09.585Z,10.33
2019-03-01T01:27:41.077Z,12.10
2019-03-01T01:30:11.726Z,10.00
2019-03-01T01:32:41.382Z,11.70
2019-03-01T01:35:11.032Z,15.13
2019-03-01T01:37:40.691Z,9.53
2019-03-01T01:40:11.077Z,11.57
2019-03-01T01:42:40.742Z,16.43
2019-03-01T01:45:10.450Z,8.60
2019-03-01T01:47:40.432Z,13.40
2019-03-01T01:50:10.099Z,9.60
2019-03-01T01:52:39.835Z,8.43
2019-03-01T01:55:09.512Z,10.80
2019-03-01T01:57:39.288Z,7.90
2019-03-01T02:00:09.879Z,6.67
2019-03-01T02:02:39.625Z,9.90
2019-03-01T02:05:09.645Z,11.97
2019-03-01T02:07:39.519Z,7.53
2019-03-01T02:10:09.799Z,6.37
2019-03-01T02:12:39.476Z,8.50
2019-03-01T02:15:12.495Z,9.30
2019-03-01T02:17:41.850Z,15.10
2019-03-01T02:20:11.816Z,6.20
2019-03-01T02:22:41.354Z,7.13
2019-03-01T02:25:11.334Z,9.67
2019-03-01T02:27:40.976Z,15.77
2019-03-01T02:30:16.338Z,12.43
2019-03-01T02:32:47.547Z,9.03
2019-03-01T02:35:19.315Z,6.57
2019-03-01T02:37:48.867Z,6.37
2019-03-01T02:40:19.605Z,6.40
2019-03-01T02:42:49.205Z,6.63
2019-03-01T02:45:20.300Z,5.60
2019-03-01T02:47:49.836Z,6.90
2019-03-01T02:50:20.153Z,10.50
2019-03-01T02:52:49.874Z,5.90
2019-03-01T02:55:20.122Z,8.53
2019-03-01T02:57:52.806Z,10.03
2019-03-01T03:00:27.215Z,8.93
2019-03-01T03:02:57.100Z,8.77
2019-03-01T03:05:26.932Z,7.37
2019-03-01T03:08:01.354Z,10.83
2019-03-01T03:10:31.145Z,7.13
2019-03-01T03:13:06.036Z,6.60
2019-03-01T03:15:41.328Z,6.73
2019-03-01T03:18:11.882Z,17.30
2019-03-01T03:20:41.535Z,7.47
2019-03-01T03:23:11.883Z,4.93
2019-03-01T03:25:41.634Z,9.93
2019-03-01T03:28:11.909Z,9.40
2019-03-01T03:30:41.447Z,6.23
2019-03-01T03:33:12.061Z,8.23
2019-03-01T03:35:41.568Z,9.47
2019-03-01T03:38:11.680Z,10.47
2019-03-01T03:40:41.259Z,8.97
2019-03-01T03:43:11.723Z,6.27
2019-03-01T03:45:41.296Z,8.50
2019-03-01T03:48:10.953Z,6.83
2019-03-01T03:50:40.523Z,8.63
2019-03-01T03:53:10.862Z,8.63
2019-03-01T03:55:40.342Z,5.50
2019-03-01T03:58:10.683Z,7.47
2019-03-01T04:00:40.271Z,8.00
2019-03-01T04:03:11.373Z,6.53
2019-03-01T04:05:41.029Z,10.83
2019-03-01T04:08:11.607Z,9.07
2019-03-01T04:10:41.159Z,11.57
2019-03-01T04:13:11.592Z,11.60
2019-03-01T04:15:41.135Z,9.33
2019-03-01T04:23:11.233Z,7.13
2019-03-01T04:25:40.778Z,9.83
2019-03-01T04:28:10.478Z,5.87
2019-03-01T04:30:40.017Z,7.00
2019-03-01T04:33:11.235Z,10.07
2019-03-01T04:35:40.814Z,16.90
2019-03-01T04:38:10.454Z,7.13
2019-03-01T04:40:39.990Z,10.90
2019-03-01T04:43:11.023Z,11.63
2019-03-01T04:45:40.910Z,5.87
2019-03-01T04:48:11.334Z,10.83
2019-03-01T04:50:40.916Z,13.03
2019-03-01T04:53:11.344Z,12.13
2019-03-01T04:55:40.948Z,9.77
2019-03-01T04:58:11.309Z,6.83
2019-03-01T05:00:40.913Z,7.13
2019-03-01T05:03:11.771Z,15.13
2019-03-01T05:05:41.432Z,9.80
2019-03-01T05:08:11.879Z,7.10
2019-03-01T05:10:41.594Z,10.20
2019-03-01T05:13:12.212Z,9.70
2019-03-01T05:15:41.828Z,9.90
2019-03-01T05:18:12.409Z,7.63
2019-03-01T05:20:42.080Z,11.17
2019-03-01T05:23:12.424Z,9.73
2019-03-01T05:25:42.111Z,8.20
2019-03-01T05:28:13.459Z,7.37
2019-03-01T05:30:43.491Z,11.40
2019-03-01T05:33:13.122Z,10.37
2019-03-01T05:35:42.772Z,8.23
2019-03-01T05:38:21.298Z,21.27
2019-03-01T05:40:44.360Z,7.80
2019-03-01T05:43:14.737Z,9.40
2019-03-01T05:45:44.296Z,9.30
2019-03-01T05:48:15.184Z,5.60
2019-03-01T05:50:44.749Z,7.50
2019-03-01T05:53:15.184Z,6.77
2019-03-01T05:55:44.763Z,6.07
2019-03-01T05:58:35.387Z,7.77
2019-03-01T06:01:27.863Z,6.70
2019-03-01T06:04:22.749Z,6.50
2019-03-01T06:07:15.210Z,9.80
2019-03-01T06:10:15.225Z,7.33
2019-03-01T06:13:28.622Z,10.80
2019-03-01T06:16:30.170Z,8.40
2019-03-01T06:19:29.360Z,9.20
2019-03-01T06:22:26.128Z,8.60
2019-03-01T06:25:34.100Z,10.57
2019-03-01T06:28:14.071Z,7.03
2019-03-01T06:31:32.432Z,5.93
2019-03-01T06:34:25.601Z,6.93
2019-03-01T06:37:57.183Z,6.63
2019-03-01T06:41:17.332Z,9.70
2019-03-01T06:44:46.815Z,9.30
2019-03-01T06:47:42.157Z,7.87
2019-03-01T06:50:34.299Z,8.03
2019-03-01T06:53:04.340Z,10.37
2019-03-01T06:58:59.374Z,7.57
2019-03-01T07:01:35.164Z,5.50
2019-03-01T07:04:23.913Z,6.87
2019-03-01T07:06:53.657Z,7.17
2019-03-01T07:09:23.509Z,5.40
2019-03-01T07:11:53.088Z,9.13
2019-03-01T07:14:22.823Z,6.27
2019-03-01T07:16:52.518Z,7.63
2019-03-01T07:19:22.410Z,4.23
2019-03-01T07:21:52.115Z,3.13
2019-03-01T07:24:21.939Z,6.07
2019-03-01T07:26:51.889Z,4.07
2019-03-01T07:29:21.853Z,10.37
2019-03-01T07:31:51.655Z,5.00
2019-03-01T07:34:21.438Z,5.00
2019-03-01T07:36:51.095Z,9.00
2019-03-01T07:39:20.809Z,5.50
2019-03-01T07:41:50.544Z,7.67
2019-03-01T07:44:20.091Z,8.53
2019-03-01T07:46:52.952Z,7.83
2019-03-01T07:49:20.987Z,9.60
2019-03-01T07:51:50.763Z,6.33
2019-03-01T07:54:22.279Z,13.97
2019-03-01T07:56:51.770Z,8.83
2019-03-01T07:59:21.398Z,7.33
2019-03-01T08:01:51.099Z,7.77
2019-03-01T08:04:23.768Z,8.77
2019-03-01T08:06:52.230Z,5.33
2019-03-01T08:09:21.867Z,8.00
2019-03-01T08:11:51.536Z,9.23
2019-03-01T08:14:24.564Z,8.30
2019-03-01T08:16:56.087Z,5.10
2019-03-01T08:19:25.475Z,12.20
2019-03-01T08:21:55.128Z,9.83
2019-03-01T08:24:25.392Z,7.40
2019-03-01T08:26:57.001Z,7.60
2019-03-01T08:29:26.372Z,11.20
2019-03-01T08:31:56.734Z,5.70
2019-03-01T08:34:27.177Z,10.20
2019-03-01T08:36:56.734Z,4.90
2019-03-01T08:39:26.587Z,6.27
2019-03-01T08:42:00.228Z,9.57
2019-03-01T08:44:27.699Z,4.90
2019-03-01T08:46:57.198Z,7.50
2019-03-01T08:49:27.065Z,7.70
2019-03-01T08:51:58.455Z,6.73
2019-03-01T08:54:28.080Z,6.53
2019-03-01T08:56:57.789Z,3.00
2019-03-01T08:59:28.102Z,5.10
2019-03-01T09:01:57.643Z,6.90
2019-03-01T09:04:27.937Z,6.23
2019-03-01T09:06:57.445Z,8.40
2019-03-01T09:09:27.364Z,7.20
2019-03-01T09:11:56.970Z,6.30
2019-03-01T09:14:27.534Z,10.73
2019-03-01T09:16:57.291Z,7.40
2019-03-01T09:19:27.251Z,5.53
2019-03-01T09:21:57.185Z,5.67
2019-03-01T09:24:29.043Z,4.50
2019-03-01T09:26:58.132Z,8.40
2019-03-01T09:29:27.848Z,6.10
2019-03-01T09:31:58.608Z,6.93
2019-03-01T09:34:28.609Z,8.17
2019-03-01T09:36:59.910Z,7.67
2019-03-01T09:39:29.871Z,4.57
2019-03-01T09:42:04.445Z,4.30
2019-03-01T09:44:34.596Z,7.23
2019-03-01T09:47:03.134Z,15.73
2019-03-01T09:49:32.895Z,7.97
2019-03-01T09:52:02.451Z,6.03
2019-03-01T09:54:32.058Z,4.40
2019-03-01T09:57:01.815Z,5.43
2019-03-01T09:59:31.411Z,3.17
2019-03-01T10:02:01.208Z,4.83
2019-03-01T10:04:30.932Z,3.80
2019-03-01T10:07:01.787Z,5.73
2019-03-01T10:09:31.903Z,6.90
2019-03-01T10:12:01.655Z,10.07
2019-03-01T10:14:31.247Z,6.17
2019-03-01T10:17:01.204Z,3.63
2019-03-01T10:19:31.015Z,4.93
2019-03-01T10:22:00.753Z,6.87
2019-03-01T10:24:30.413Z,5.13
2019-03-01T10:27:00.059Z,3.83
2019-03-01T10:29:29.770Z,9.57
2019-03-01T10:31:59.482Z,5.23
2019-03-01T10:34:29.115Z,6.53
2019-03-01T10:36:58.659Z,6.23
2019-03-01T10:39:28.532Z,4.90
2019-03-01T10:41:58.184Z,7.23
2019-03-01T10:44:28.139Z,5.00
2019-03-01T10:46:59.530Z,8.27
2019-03-01T10:49:29.274Z,6.03
2019-03-01T10:51:58.918Z,2.27
2019-03-01T10:54:28.669Z,1.70
2019-03-01T10:56:58.310Z,5.00
2019-03-01T10:59:28.049Z,2.70
2019-03-01T11:01:57.918Z,6.77
2019-03-01T11:04:27.614Z,3.60
2019-03-01T11:06:57.731Z,2.30
2019-03-01T11:09:27.490Z,4.20
2019-03-01T11:11:57.075Z,2.67
2019-03-01T11:14:26.888Z,1.97
2019-03-01T11:16:56.598Z,5.40
2019-03-01T11:19:26.603Z,3.27
2019-03-01T11:21:56.309Z,3.03
2019-03-01T11:24:27.715Z,1.63
2019-03-01T11:26:57.380Z,4.67
2019-03-01T11:29:27.196Z,2.40
2019-03-01T11:31:56.795Z,1.70
2019-03-01T11:34:26.641Z,4.10
2019-03-01T11:36:56.380Z,3.93
2019-03-01T11:39:26.163Z,6.10
2019-03-01T11:41:55.788Z,4.67
2019-03-01T11:44:26.247Z,2.60
2019-03-01T11:46:55.827Z,2.00
2019-03-01T11:49:25.627Z,2.60
2019-03-01T11:51:55.209Z,3.53
2019-03-01T11:54:25.256Z,2.90
2019-03-01T11:56:54.835Z,3.13
2019-03-01T11:59:24.581Z,1.60
2019-03-01T12:01:54.138Z,2.13
2019-03-01T12:04:24.090Z,2.80
2019-03-01T12:06:53.936Z,2.00
2019-03-01T12:09:23.722Z,4.03
2019-03-01T12:11:53.177Z,4.37
2019-03-01T12:14:23.021Z,4.93
2019-03-01T12:16:53.860Z,1.70
2019-03-01T12:19:23.671Z,2.60
2019-03-01T12:21:53.364Z,4.27
2019-03-01T12:24:23.754Z,2.73
2019-03-01T12:26:54.861Z,3.00
2019-03-01T12:29:24.788Z,2.93
2019-03-01T12:31:54.335Z,1.93
2019-03-01T12:34:24.421Z,4.57
2019-03-01T12:36:54.079Z,2.87
2019-03-01T12:39:23.888Z,1.70
2019-03-01T12:41:53.535Z,2.40
2019-03-01T12:44:23.213Z,1.43
2019-03-01T12:46:53.013Z,2.67
2019-03-01T12:49:22.860Z,1.43
2019-03-01T12:51:52.532Z,1.37
2019-03-01T12:54:22.245Z,1.90
2019-03-01T12:56:52.103Z,2.10
2019-03-01T12:59:21.812Z,1.70
2019-03-01T13:01:52.252Z,2.00
2019-03-01T13:04:22.512Z,2.10
2019-03-01T13:06:52.267Z,2.83
2019-03-01T13:09:23.471Z,1.73
2019-03-01T13:11:53.950Z,1.60
2019-03-01T13:14:23.948Z,1.73
2019-03-01T13:16:53.735Z,1.50
2019-03-01T13:19:26.168Z,4.70
2019-03-01T13:21:55.537Z,5.43
2019-03-01T13:24:25.357Z,1.57
2019-03-01T13:26:55.169Z,2.27
2019-03-01T13:29:24.883Z,2.37
2019-03-01T13:31:54.619Z,1.57
2019-03-01T13:34:26.172Z,3.40
2019-03-01T13:36:55.931Z,2.33
2019-03-01T13:39:26.171Z,2.10
2019-03-01T13:41:55.967Z,2.33
2019-03-01T13:44:26.104Z,4.70
2019-03-01T13:46:56.125Z,2.40
2019-03-01T13:49:26.800Z,2.87
2019-03-01T13:51:57.191Z,3.60
2019-03-01T13:54:26.751Z,2.20
2019-03-01T13:56:56.750Z,3.30
2019-03-01T13:59:26.376Z,9.63
2019-03-01T14:01:56.205Z,2.10
2019-03-01T14:04:26.307Z,5.13
2019-03-01T14:06:56.092Z,3.10
2019-03-01T14:09:27.208Z,3.20
2019-03-01T14:11:59.283Z,3.73
2019-03-01T14:14:28.952Z,5.40
2019-03-01T14:16:58.578Z,7.37
2019-03-01T14:19:28.869Z,3.53
2019-03-01T14:21:58.583Z,3.50
2019-03-01T14:24:29.564Z,3.03
2019-03-01T14:27:00.199Z,3.90
2019-03-01T14:29:29.756Z,2.17
2019-03-01T14:32:00.135Z,2.57
2019-03-01T14:34:30.510Z,6.00
2019-03-01T14:37:00.252Z,2.80
2019-03-01T14:39:30.263Z,2.97
2019-03-01T14:42:00.021Z,5.27
2019-03-01T14:44:30.723Z,3.33
2019-03-01T14:47:01.653Z,4.40
2019-03-01T14:49:31.361Z,5.27
2019-03-01T14:52:01.195Z,5.97
2019-03-01T14:54:31.256Z,2.20
2019-03-01T14:57:11.508Z,5.17
2019-03-01T14:59:52.918Z,5.00
2019-03-01T15:02:53.011Z,8.20
2019-03-01T15:05:25.337Z,2.93
2019-03-01T15:07:55.335Z,7.10
2019-03-01T15:10:25.157Z,5.60
2019-03-01T15:12:58.006Z,5.50
2019-03-01T15:15:29.954Z,4.00
2019-03-01T15:17:58.856Z,7.33
2019-03-01T15:20:28.564Z,6.30
2019-03-01T15:22:58.176Z,5.90
2019-03-01T15:25:28.020Z,5.20
2019-03-01T15:27:58.553Z,5.83
2019-03-01T15:30:28.126Z,7.87
2019-03-01T15:32:57.951Z,3.57
2019-03-01T15:35:28.842Z,6.63
2019-03-01T15:37:58.795Z,3.80
2019-03-01T15:40:31.458Z,3.57
2019-03-01T15:43:00.055Z,8.60
2019-03-01T15:45:29.699Z,7.63
2019-03-01T15:48:02.067Z,4.47
2019-03-01T15:50:30.916Z,3.17
2019-03-01T15:53:00.751Z,3.80
2019-03-01T15:55:30.451Z,2.90
2019-03-01T15:58:00.304Z,4.40
2019-03-01T16:00:31.189Z,4.33
2019-03-01T16:03:01.321Z,3.10
2019-03-01T16:05:34.269Z,6.50
2019-03-01T16:08:05.537Z,8.43
2019-03-01T16:10:36.035Z,6.53
2019-03-01T16:13:08.517Z,3.40
2019-03-01T16:15:38.959Z,3.23
2019-03-01T16:18:10.376Z,3.10
2019-03-01T16:20:40.128Z,3.30
2019-03-01T16:23:11.108Z,4.23
2019-03-01T16:25:41.091Z,8.53
2019-03-01T16:28:11.807Z,4.50
2019-03-01T16:30:41.359Z,4.77
2019-03-01T16:33:12.199Z,5.33
2019-03-01T16:35:41.880Z,3.80
2019-03-01T16:38:12.605Z,5.17
2019-03-01T16:40:42.314Z,8.10
2019-03-01T16:43:12.899Z,5.40
2019-03-01T16:45:42.500Z,5.07
2019-03-01T16:48:13.550Z,8.30
2019-03-01T16:50:44.808Z,8.00
2019-03-01T16:53:15.529Z,6.47
2019-03-01T16:55:45.097Z,7.07
2019-03-01T16:58:15.519Z,10.67
2019-03-01T17:00:45.215Z,7.30
2019-03-01T17:03:18.125Z,6.87
2019-03-01T17:05:48.050Z,6.27
2019-03-01T17:08:18.431Z,6.87
2019-03-01T17:10:48.091Z,9.63
2019-03-01T17:13:18.529Z,7.87
2019-03-01T17:15:49.187Z,8.30
2019-03-01T17:18:19.850Z,8.70
2019-03-01T17:20:49.672Z,8.43
2019-03-01T17:23:20.061Z,7.30
2019-03-01T17:25:50.260Z,8.13
2019-03-01T17:28:23.612Z,8.17
2019-03-01T17:30:52.144Z,15.10
2019-03-01T17:33:22.421Z,9.20
2019-03-01T17:35:52.276Z,9.10
2019-03-01T17:38:22.688Z,7.80
2019-03-01T17:40:52.464Z,15.83
2019-03-01T17:43:22.027Z,10.03
2019-03-01T17:45:54.439Z,9.97
2019-03-01T17:48:23.037Z,8.53
2019-03-01T17:50:52.886Z,10.47
2019-03-01T17:53:23.504Z,10.07
2019-03-01T17:55:53.379Z,10.67
2019-03-01T17:58:23.790Z,13.10
2019-03-01T18:00:53.644Z,9.93
2019-03-01T18:03:23.874Z,11.87
2019-03-01T18:05:53.596Z,9.93
2019-03-01T18:08:23.339Z,8.90
2019-03-01T18:10:53.012Z,10.57
2019-03-01T18:13:22.935Z,12.60
2019-03-01T18:15:52.647Z,8.93
2019-03-01T18:18:23.067Z,9.90
2019-03-01T18:20:52.819Z,9.70
2019-03-01T18:23:23.164Z,12.40
2019-03-01T18:25:53.015Z,13.40
2019-03-01T18:28:24.941Z,13.50
2019-03-01T18:30:56.183Z,11.10
2019-03-01T18:33:25.583Z,13.10
2019-03-01T18:35:55.916Z,15.23
2019-03-01T18:38:27.665Z,16.50
2019-03-01T18:41:01.401Z,10.73
2019-03-01T18:43:31.938Z,11.67
2019-03-01T18:46:01.747Z,14.93
2019-03-01T18:48:33.471Z,12.33
2019-03-01T18:51:03.485Z,16.70
2019-03-01T18:53:35.595Z,12.03
2019-03-01T18:56:05.135Z,11.47
2019-03-01T18:58:35.401Z,11.90
2019-03-01T19:01:07.818Z,10.43
2019-03-01T19:03:40.201Z,10.27
2019-03-01T19:06:08.244Z,10.20
2019-03-01T19:08:39.593Z,14.53
2019-03-01T19:11:09.980Z,15.00
2019-03-01T19:13:39.788Z,14.33
2019-03-01T19:16:09.689Z,9.57
2019-03-01T19:18:42.184Z,10.60
2019-03-01T19:21:13.895Z,11.53
2019-03-01T19:23:43.998Z,11.60
2019-03-01T19:26:13.693Z,12.97
2019-03-01T19:28:43.428Z,11.17
2019-03-01T19:31:13.321Z,11.27
2019-03-01T19:33:43.281Z,9.87
2019-03-01T19:36:12.885Z,9.50
2019-03-01T19:38:43.665Z,8.27
2019-03-01T19:41:13.472Z,13.53
2019-03-01T19:43:45.676Z,8.83
2019-03-01T19:46:15.708Z,9.00
2019-03-01T19:48:46.198Z,12.30
2019-03-01T19:51:15.927Z,8.60
2019-03-01T19:53:45.886Z,10.03
2019-03-01T19:56:15.595Z,9.40
2019-03-01T19:58:47.924Z,9.50
2019-03-01T20:01:17.986Z,10.00
2019-03-01T20:03:48.139Z,8.23
2019-03-01T20:06:17.955Z,8.00
2019-03-01T20:08:47.715Z,9.30
2019-03-01T20:11:17.487Z,10.97
2019-03-01T20:13:47.182Z,9.87
2019-03-01T20:16:19.743Z,10.80
2019-03-01T20:18:48.514Z,11.63
2019-03-01T20:21:19.260Z,10.53
2019-03-01T20:23:48.862Z,11.93
2019-03-01T20:26:18.620Z,13.73
2019-03-01T20:28:50.544Z,10.70
2019-03-01T20:31:19.671Z,11.00
2019-03-01T20:33:50.196Z,11.40
2019-03-01T20:36:20.582Z,11.77
2019-03-01T20:38:50.139Z,15.00
2019-03-01T20:41:19.959Z,13.03
2019-03-01T20:43:50.071Z,13.43
2019-03-01T20:46:19.776Z,12.80
2019-03-01T20:48:49.920Z,14.00
2019-03-01T20:51:23.031Z,22.07
2019-03-01T20:53:50.901Z,16.50
2019-03-01T20:56:20.637Z,15.60
2019-03-01T20:58:50.975Z,15.40
2019-03-01T21:01:20.818Z,15.87
2019-03-01T21:03:51.519Z,17.70
2019-03-01T21:06:21.757Z,15.83
2019-03-01T21:08:51.979Z,18.50
2019-03-01T21:11:25.544Z,19.87
2019-03-01T21:13:53.361Z,19.20
2019-03-01T21:16:23.023Z,20.60
2019-03-01T21:18:52.639Z,17.73
2019-03-01T21:21:25.571Z,18.90
2019-03-01T21:23:54.415Z,18.70
2019-03-01T21:26:24.242Z,18.10
2019-03-01T21:28:54.542Z,16.97
2019-03-01T21:31:24.253Z,19.43
2019-03-01T21:33:55.470Z,17.70
2019-03-01T21:36:26.208Z,15.83
2019-03-01T21:38:56.501Z,18.37
2019-03-01T21:41:26.769Z,17.97
2019-03-01T21:43:56.353Z,22.03
2019-03-01T21:46:26.055Z,19.53
2019-03-01T21:48:56.861Z,19.10
2019-03-01T21:51:28.319Z,20.33
2019-03-01T21:56:33.819Z,24.43
2019-03-01T21:59:03.419Z,21.87
2019-03-01T22:01:34.133Z,22.83
2019-03-01T22:04:03.855Z,24.43
2019-03-01T22:06:37.653Z,23.03
2019-03-01T22:09:07.745Z,26.23
2019-03-01T22:11:37.419Z,27.97
2019-03-01T22:14:07.572Z,30.63
2019-03-01T22:16:39.486Z,27.60
2019-03-01T22:19:09.300Z,34.67
2019-03-01T22:21:39.057Z,33.37
2019-03-01T22:24:08.771Z,32.40
2019-03-01T22:26:38.481Z,31.33
2019-03-01T22:29:08.883Z,30.37
2019-03-01T22:31:40.402Z,31.73
2019-03-01T22:34:10.200Z,35.90
2019-03-01T22:36:39.726Z,29.97
2019-03-01T22:39:09.389Z,34.73
2019-03-01T22:41:39.390Z,34.47
2019-03-01T22:44:10.336Z,32.17
2019-03-01T22:46:39.851Z,32.27
2019-03-01T22:49:09.498Z,30.17
2019-03-01T22:51:39.000Z,32.83
2019-03-01T22:54:08.605Z,29.83
2019-03-01T22:56:38.258Z,33.77
2019-03-01T22:59:08.640Z,30.60
2019-03-01T23:01:50.419Z,30.07
2019-03-01T23:04:20.079Z,30.77
2019-03-01T23:06:51.498Z,27.07
2019-03-01T23:09:21.859Z,26.97
2019-03-01T23:11:51.406Z,30.60
2019-03-01T23:14:21.049Z,30.60
2019-03-01T23:16:54.224Z,32.23
2019-03-01T23:19:22.100Z,30.93
2019-03-01T23:21:51.679Z,30.73
2019-03-01T23:24:21.466Z,31.30
2019-03-01T23:26:53.657Z,29.27
2019-03-01T23:29:22.342Z,32.20
2019-03-01T23:31:51.983Z,28.50
2019-03-01T23:34:21.844Z,28.93
2019-03-01T23:36:51.347Z,29.80
2019-03-01T23:39:21.688Z,27.73
2019-03-01T23:41:52.233Z,26.93
2019-03-01T23:44:21.975Z,28.33
2019-03-01T23:46:51.504Z,28.47
2019-03-01T23:49:24.044Z,29.70
2019-03-01T23:51:52.384Z,27.27
2019-03-01T23:54:22.048Z,26.33
2019-03-01T23:56:51.627Z,29.33
2019-03-01T23:59:23.730Z,29.63
